Feather Falls, CA (95940)

5:35 PM PDT on July 06, 2015 (GMT -0700)
East Oroville Pine Oaks Road | | Change Station
CLOSE
Current Station
Personal Weather Station
Location: Oroville, CA
Elevation: 490 ft
Nearby Weather Stations

Elev 490 ft 39.51 °N, 121.52 °W | Updated 5 seconds ago

Clear
Clear
92.9 °F
Feels Like 92 °F
N
2.0
Wind Variable Wind from SSW
Gusts 5.0 mph

Today
High -- | Low -- °F
--% Chance of Precip.
Yesterday
High -- | Low -- °F
Precip. -- in
5:45 AM 8:36 PM
Waning Gibbous, 70% visible
Pressure 29.91 in
Visibility 10.0 miles
Clouds Clear
Heat Index 92 °F
Dew Point 60 °F
Humidity 33%
Rainfall 0.00 in
Snow Depth Not available.
UV 5 out of 12
Pollen 5.30 out of 12
Air Quality Not available.
Flu Activity Not available.
METAR KOVE 062353Z AUTO VRB03KT 10SM CLR 33/16 A2991 RMK AO2 SLP128 T03280161 10333 20250 58027

More Conditions Fewer Conditions

Pressure 29.91 in
Visibility 10.0 miles
Clouds Clear
Heat Index 92 °F
Dew Point 60 °F
Humidity 33%
Rainfall 0.00 in
Snow Depth Not available.
UV 5 out of 12
Pollen 5.30 out of 12
Air Quality Not available.
Flu Activity Not available.
METAR KOVE 062353Z AUTO VRB03KT 10SM CLR 33/16 A2991 RMK AO2 SLP128 T03280161 10333 20250 58027

More Conditions Fewer Conditions

10-Day Weather Forecast

×

Almanac

Astronomy

Jul. 06, 2015 Rise Set
Actual Time
Civil Twilight
Nautical Twilight
Astronomical Twilight
Moon
Length of Visible Light
Length of Day
Tomorrow will be .
, % of the Moon is Illuminated

Today's Extremes

State Highs State Lows

Community

WunderPhotos

Upload Photos

1,835,681 photos uploaded!

WunderBlogs® & News

Nearby

Air Quality

  Air Quality AQ Index Pollutant
Not available.

Snow Depth

Station Depth Elevation

Earthquake Activity

City Distance Mag. Time & Date
Minimum magnitude displayed is 2.5.

Coastal Water Temperatures

Place Temperature

Stations

Nearby Weather Stations

Station Location Temp. Windchill Dew Point Humidity Wind Precip. Elev Updated Type